createdAt,value
2023-09-28T00:01:42.394Z,100218.66
2023-09-28T00:04:26.989Z,100211.88
2023-09-28T00:07:10.959Z,100252.31
2023-09-28T00:09:53.794Z,100228.50
2023-09-28T00:12:37.628Z,100259.34
2023-09-28T00:15:22.474Z,100252.28
2023-09-28T00:18:06.947Z,100253.06
2023-09-28T00:20:52.452Z,100233.06
2023-09-28T00:23:36.407Z,100233.78
2023-09-28T00:26:20.448Z,100237.59
2023-09-28T00:29:06.105Z,100232.25
2023-09-28T00:31:50.728Z,100243.38
2023-09-28T00:34:33.760Z,100214.84
2023-09-28T00:37:19.044Z,100225.81
2023-09-28T00:40:09.130Z,100237.19
2023-09-28T00:42:53.882Z,100230.41
2023-09-28T00:45:38.488Z,100245.81
2023-09-28T00:48:23.022Z,100234.34
2023-09-28T00:51:06.039Z,100251.63
2023-09-28T00:53:52.514Z,100242.88
2023-09-28T00:56:37.757Z,100236.81
2023-09-28T00:59:22.367Z,100243.28
2023-09-28T01:02:06.500Z,100237.09
2023-09-28T01:04:49.547Z,100237.56
2023-09-28T01:07:34.126Z,100232.94
2023-09-28T01:10:21.588Z,100220.38
2023-09-28T01:13:09.749Z,100241.72
2023-09-28T01:15:52.752Z,100228.06
2023-09-28T01:18:37.577Z,100204.25
2023-09-28T01:21:20.453Z,100226.63
2023-09-28T01:24:06.067Z,100211.59
2023-09-28T01:26:50.080Z,100228.59
2023-09-28T01:29:33.993Z,100225.16
2023-09-28T01:32:17.046Z,100231.75
2023-09-28T01:35:00.994Z,100218.66
2023-09-28T01:37:55.602Z,100222.59
2023-09-28T01:40:41.416Z,100233.84
2023-09-28T01:43:24.330Z,100223.09
2023-09-28T01:46:08.308Z,100081.38
2023-09-28T01:48:51.225Z,100228.53
2023-09-28T01:51:35.167Z,100219.59
2023-09-28T01:54:18.080Z,100231.22
2023-09-28T01:57:03.383Z,100234.31
2023-09-28T01:59:46.346Z,100221.81
2023-09-28T02:02:30.744Z,100210.25
2023-09-28T02:05:18.159Z,100240.91
2023-09-28T02:08:02.665Z,100246.47
2023-09-28T02:10:47.220Z,100243.84
2023-09-28T02:13:32.326Z,100238.31
2023-09-28T02:16:16.448Z,100248.59
2023-09-28T02:18:59.467Z,100230.66
2023-09-28T02:21:43.657Z,100245.13
2023-09-28T02:24:27.503Z,100244.44
2023-09-28T02:27:10.530Z,100246.13
2023-09-28T02:29:55.990Z,100246.19
2023-09-28T02:32:39.653Z,100244.47
2023-09-28T02:35:25.481Z,100233.09
2023-09-28T02:38:08.690Z,100244.53
2023-09-28T02:40:53.050Z,100250.75
2023-09-28T02:43:37.017Z,100257.34
2023-09-28T02:46:21.368Z,100241.59
2023-09-28T02:49:07.507Z,100257.22
2023-09-28T02:51:51.922Z,100247.38
2023-09-28T02:54:35.873Z,100254.41
2023-09-28T02:57:19.724Z,100229.81
2023-09-28T03:00:13.185Z,100243.97
2023-09-28T03:02:58.957Z,100260.22
2023-09-28T03:05:42.223Z,100246.66
2023-09-28T03:08:26.414Z,100212.53
2023-09-28T03:11:09.398Z,100262.06
2023-09-28T03:13:53.549Z,100218.47
2023-09-28T03:16:37.710Z,100259.50
2023-09-28T03:19:22.013Z,100270.88
2023-09-28T03:22:06.155Z,100255.84
2023-09-28T03:24:49.238Z,100261.41
2023-09-28T03:27:33.174Z,100244.75
2023-09-28T03:30:17.924Z,100276.38
2023-09-28T03:33:01.672Z,100263.84
2023-09-28T03:35:47.360Z,100275.91
2023-09-28T03:38:31.278Z,100283.38
2023-09-28T03:41:15.948Z,100278.50
2023-09-28T03:43:59.961Z,100284.50
2023-09-28T03:46:44.023Z,100285.50
2023-09-28T03:49:27.919Z,100290.41
2023-09-28T03:52:13.189Z,100290.16
2023-09-28T03:54:57.720Z,100284.97
2023-09-28T03:57:43.948Z,100287.53
2023-09-28T04:00:28.174Z,100262.84
2023-09-28T04:03:12.965Z,100284.28
2023-09-28T04:05:56.837Z,100300.06
2023-09-28T04:08:42.144Z,100288.06
2023-09-28T04:11:26.123Z,100288.00
2023-09-28T04:14:10.129Z,100291.50
2023-09-28T04:16:54.336Z,100288.38
2023-09-28T04:19:38.620Z,100256.19
2023-09-28T04:22:22.896Z,100302.88
2023-09-28T04:25:09.373Z,100295.84
2023-09-28T04:27:53.244Z,100289.28
2023-09-28T04:30:38.249Z,100303.47
2023-09-28T04:33:22.506Z,100297.88
2023-09-28T04:36:09.005Z,100299.56
2023-09-28T04:38:52.932Z,100288.16
2023-09-28T04:41:38.246Z,100300.66
2023-09-28T04:44:22.686Z,100300.44
2023-09-28T04:47:06.939Z,100305.53
2023-09-28T04:49:51.321Z,100301.78
2023-09-28T04:52:35.223Z,100300.09
2023-09-28T04:55:19.388Z,100296.44
2023-09-28T04:58:04.805Z,100290.09
2023-09-28T05:00:48.623Z,100317.50
2023-09-28T05:03:33.097Z,100301.94
2023-09-28T05:06:17.253Z,100293.19
2023-09-28T05:09:01.495Z,100283.34
2023-09-28T05:11:45.672Z,100316.66
2023-09-28T05:14:31.066Z,100291.47
2023-09-28T05:17:15.896Z,100318.91
2023-09-28T05:20:00.059Z,100333.75
2023-09-28T05:22:45.009Z,100333.13
2023-09-28T05:25:30.038Z,100323.16
2023-09-28T05:28:15.806Z,100336.63
2023-09-28T05:31:01.241Z,100300.16
2023-09-28T05:33:45.629Z,100351.97
2023-09-28T05:36:29.672Z,100338.72
2023-09-28T05:39:13.958Z,100324.66
2023-09-28T05:41:58.035Z,100327.94
2023-09-28T05:44:42.078Z,100329.59
2023-09-28T05:47:27.573Z,100339.38
2023-09-28T05:50:12.827Z,100339.28
2023-09-28T05:52:57.712Z,100328.00
2023-09-28T05:55:41.855Z,100344.22
2023-09-28T05:58:25.780Z,100304.31
2023-09-28T06:01:11.139Z,100347.69
2023-09-28T06:03:56.537Z,100339.75
2023-09-28T06:06:40.463Z,100341.75
2023-09-28T06:09:24.404Z,100315.63
2023-09-28T06:12:08.669Z,100342.19
2023-09-28T06:14:52.586Z,100338.09
2023-09-28T06:17:36.714Z,100352.91
2023-09-28T06:20:22.398Z,100350.13
2023-09-28T06:23:06.473Z,100355.75
2023-09-28T06:25:50.502Z,100352.78
2023-09-28T06:28:34.515Z,100358.84
2023-09-28T06:31:20.352Z,100348.06
2023-09-28T06:34:04.624Z,100367.44
2023-09-28T06:36:52.819Z,100367.41
2023-09-28T06:39:39.069Z,100370.66
2023-09-28T06:42:36.274Z,100372.13
2023-09-28T06:45:21.447Z,100324.81
2023-09-28T06:48:18.606Z,100363.94
2023-09-28T06:51:04.345Z,100340.19
2023-09-28T06:53:50.033Z,100338.78
2023-09-28T06:56:36.156Z,100329.59
2023-09-28T06:59:20.576Z,100237.38
2023-09-28T07:02:05.995Z,100334.03
2023-09-28T07:04:50.838Z,100346.50
2023-09-28T07:07:34.868Z,100347.91
2023-09-28T07:10:20.361Z,100358.75
2023-09-28T07:13:06.563Z,100364.09
2023-09-28T07:15:51.024Z,100371.53
2023-09-28T07:18:35.282Z,100367.94
2023-09-28T07:21:19.268Z,100375.63
2023-09-28T07:24:16.677Z,100381.16
2023-09-28T07:27:04.466Z,100394.25
2023-09-28T07:29:50.216Z,100390.03
2023-09-28T07:32:34.507Z,100386.53
2023-09-28T07:35:19.525Z,100391.91
2023-09-28T07:38:03.649Z,100384.94
2023-09-28T07:40:48.532Z,100386.53
2023-09-28T07:43:34.009Z,100380.69
2023-09-28T07:46:17.967Z,100389.81
2023-09-28T07:49:02.104Z,100381.22
2023-09-28T07:51:45.979Z,100358.19
2023-09-28T07:54:29.800Z,100365.16
2023-09-28T07:57:13.765Z,100379.78
2023-09-28T07:59:59.197Z,100391.97
2023-09-28T08:02:43.888Z,100383.34
2023-09-28T08:05:28.419Z,100385.16
2023-09-28T08:08:16.811Z,100380.66
2023-09-28T08:11:02.437Z,100387.94
2023-09-28T08:13:46.435Z,100386.38
2023-09-28T08:16:31.885Z,100382.13
2023-09-28T08:19:15.890Z,100378.53
2023-09-28T08:22:00.140Z,100378.78
2023-09-28T08:24:44.406Z,100391.38
2023-09-28T08:27:28.388Z,100382.69
2023-09-28T08:30:13.085Z,100367.41
2023-09-28T08:32:58.461Z,100381.59
2023-09-28T08:35:42.500Z,100380.09
2023-09-28T08:38:27.209Z,100398.84
2023-09-28T08:41:12.085Z,100386.03
2023-09-28T08:44:05.305Z,100367.78
2023-09-28T08:46:51.166Z,100392.47
2023-09-28T08:49:38.411Z,100379.00
2023-09-28T08:52:24.270Z,100383.06
2023-09-28T08:55:11.194Z,100360.78
2023-09-28T08:57:56.158Z,100368.91
2023-09-28T09:00:41.705Z,100366.22
2023-09-28T09:03:26.363Z,100344.94
2023-09-28T09:06:13.090Z,100354.06
2023-09-28T09:09:02.863Z,100349.50
2023-09-28T09:11:52.790Z,100365.19
2023-09-28T09:14:37.747Z,100365.16
2023-09-28T09:17:21.802Z,100343.81
2023-09-28T09:20:10.767Z,100367.53
2023-09-28T09:23:01.382Z,100367.31
2023-09-28T09:25:48.459Z,100368.00
2023-09-28T09:28:34.646Z,100350.47
2023-09-28T09:31:18.875Z,100374.78
2023-09-28T09:34:05.987Z,100371.22
2023-09-28T09:36:57.568Z,100361.09
2023-09-28T09:39:43.245Z,100357.06
2023-09-28T09:42:28.958Z,100353.25
2023-09-28T09:45:14.361Z,100343.72
2023-09-28T09:47:59.732Z,100325.63
2023-09-28T09:50:45.911Z,100347.13
2023-09-28T09:53:32.153Z,100324.91
2023-09-28T09:56:18.065Z,100349.88
2023-09-28T09:59:07.413Z,100343.66
2023-09-28T10:01:53.467Z,100332.50
2023-09-28T10:04:38.172Z,100339.94
2023-09-28T10:07:34.153Z,100338.50
2023-09-28T10:10:30.094Z,100343.06
2023-09-28T10:13:16.489Z,100332.22
2023-09-28T10:16:04.313Z,100326.94
2023-09-28T10:18:50.832Z,100309.50
2023-09-28T10:21:39.118Z,100328.69
2023-09-28T10:24:41.326Z,100334.28
2023-09-28T10:27:25.378Z,100326.75
2023-09-28T10:30:20.259Z,100321.84
2023-09-28T10:33:12.127Z,100318.31
2023-09-28T10:36:13.492Z,100331.94
2023-09-28T10:39:12.911Z,100313.47
2023-09-28T10:42:06.954Z,100314.44
2023-09-28T10:44:52.542Z,100310.50
2023-09-28T10:50:40.261Z,100314.16
2023-09-28T10:53:24.900Z,100316.09
2023-09-28T10:56:09.184Z,100322.03
2023-09-28T10:58:59.292Z,100314.63
2023-09-28T11:01:44.159Z,100289.91
2023-09-28T11:04:43.207Z,100304.56
2023-09-28T11:07:27.804Z,100311.09
2023-09-28T11:10:13.067Z,100305.50
2023-09-28T11:12:57.024Z,100304.91
2023-09-28T11:15:42.633Z,100319.28
2023-09-28T11:21:31.126Z,100307.47
2023-09-28T11:27:17.593Z,100288.50
2023-09-28T11:30:03.882Z,100295.94
2023-09-28T11:32:53.215Z,100261.59
2023-09-28T11:35:39.747Z,100286.88
2023-09-28T11:38:23.853Z,100284.50
2023-09-28T11:41:08.148Z,100273.13
2023-09-28T11:43:55.080Z,100285.72
2023-09-28T11:46:39.947Z,100280.41
2023-09-28T11:49:25.851Z,100274.88
2023-09-28T11:52:11.839Z,100274.22
2023-09-28T11:54:55.881Z,100270.38
2023-09-28T11:57:39.840Z,100269.50
2023-09-28T12:03:27.745Z,100277.16
2023-09-28T12:06:14.135Z,100259.84
2023-09-28T12:08:58.124Z,100269.66
2023-09-28T12:11:43.242Z,100266.50
2023-09-28T12:14:27.406Z,100270.50
2023-09-28T12:17:11.444Z,100273.72
2023-09-28T12:19:55.518Z,100258.84
2023-09-28T12:25:43.198Z,100290.44
2023-09-28T12:28:27.154Z,100271.28
2023-09-28T12:34:15.055Z,100287.88
2023-09-28T12:36:59.299Z,100301.38
2023-09-28T12:39:44.878Z,100281.47
2023-09-28T12:42:29.027Z,100284.41
2023-09-28T12:45:13.163Z,100280.13
2023-09-28T12:47:57.206Z,100275.28
2023-09-28T12:50:41.269Z,100274.31
2023-09-28T12:53:27.402Z,100275.53
2023-09-28T12:56:14.231Z,100261.75
2023-09-28T12:58:58.372Z,100275.09
2023-09-28T13:01:42.414Z,100287.81
2023-09-28T13:04:26.520Z,100280.78
2023-09-28T13:07:10.869Z,100258.34
2023-09-28T13:09:54.754Z,100275.66
2023-09-28T13:12:40.530Z,100242.13
2023-09-28T13:15:24.653Z,100268.88
2023-09-28T13:18:11.175Z,100260.91
2023-09-28T13:20:55.073Z,100271.97
2023-09-28T13:23:39.097Z,100271.94
2023-09-28T13:26:25.385Z,100272.28
2023-09-28T13:29:10.730Z,100258.25
2023-09-28T13:31:55.813Z,100287.84
2023-09-28T13:34:39.905Z,100262.97
2023-09-28T13:37:24.008Z,100252.94
2023-09-28T13:40:17.010Z,100254.28
2023-09-28T13:43:01.352Z,100242.97
2023-09-28T13:45:48.738Z,100226.75
2023-09-28T13:48:33.188Z,100218.22
2023-09-28T13:51:17.509Z,100243.16
2023-09-28T13:54:01.694Z,100191.09
2023-09-28T13:56:45.833Z,100219.88
2023-09-28T13:59:30.270Z,100218.56
2023-09-28T14:02:16.183Z,100247.25
2023-09-28T14:05:02.233Z,100224.63
2023-09-28T14:07:47.474Z,100206.59
2023-09-28T14:10:31.993Z,100246.56
2023-09-28T14:13:16.933Z,100214.47
2023-09-28T14:16:02.666Z,100217.59
2023-09-28T14:18:48.903Z,100222.00
2023-09-28T14:21:33.227Z,100255.09
2023-09-28T14:24:17.861Z,100242.56
2023-09-28T14:27:01.951Z,100261.19
2023-09-28T14:29:46.437Z,100224.06
2023-09-28T14:32:31.044Z,100217.66
2023-09-28T14:35:18.074Z,100218.63
2023-09-28T14:38:02.357Z,100252.75
2023-09-28T14:40:46.898Z,100235.88
2023-09-28T14:43:31.124Z,100262.22
2023-09-28T14:46:15.567Z,100251.56
2023-09-28T14:49:00.795Z,100266.06
2023-09-28T14:51:46.650Z,100260.16
2023-09-28T14:54:30.822Z,100260.13
2023-09-28T14:57:14.963Z,100252.06
2023-09-28T14:59:59.330Z,100270.66
2023-09-28T15:02:44.869Z,100265.06
2023-09-28T15:05:29.610Z,100257.16
2023-09-28T15:08:15.670Z,100248.22
2023-09-28T15:10:59.871Z,100288.19
2023-09-28T15:13:44.030Z,100293.94
2023-09-28T15:16:28.329Z,100292.94
2023-09-28T15:19:12.557Z,100283.13
2023-09-28T15:21:56.634Z,100285.97
2023-09-28T15:24:42.778Z,100257.63
2023-09-28T15:27:27.074Z,100264.91
2023-09-28T15:30:12.744Z,100299.13
2023-09-28T15:32:56.947Z,100270.25
2023-09-28T15:35:41.306Z,100291.16
2023-09-28T15:38:25.568Z,100262.75
2023-09-28T15:41:35.308Z,100262.81
2023-09-28T15:44:19.687Z,100260.00
2023-09-28T15:47:04.325Z,100261.91
2023-09-28T15:49:49.464Z,100259.03
2023-09-28T15:52:34.267Z,100267.84
2023-09-28T15:55:18.817Z,100285.03
2023-09-28T15:58:04.547Z,100260.03
2023-09-28T16:00:50.217Z,100267.00
2023-09-28T16:03:34.365Z,100261.63
2023-09-28T16:06:19.096Z,100292.94
2023-09-28T16:09:04.410Z,100301.63
2023-09-28T16:11:48.825Z,100304.47
2023-09-28T16:14:35.141Z,100287.72
2023-09-28T16:17:19.925Z,100321.34
2023-09-28T16:20:04.213Z,100306.13
2023-09-28T16:22:48.715Z,100315.56
2023-09-28T16:25:34.221Z,100314.31
2023-09-28T16:28:19.507Z,100317.78
2023-09-28T16:31:06.486Z,100320.72
2023-09-28T16:33:50.841Z,100314.69
2023-09-28T16:36:35.456Z,100318.81
2023-09-28T16:39:19.672Z,100318.97
2023-09-28T16:42:03.859Z,100305.56
2023-09-28T16:44:47.692Z,100283.81
2023-09-28T16:47:33.283Z,100304.69
2023-09-28T16:50:17.557Z,100286.13
2023-09-28T16:53:02.808Z,100295.28
2023-09-28T16:55:46.886Z,100292.03
2023-09-28T16:58:30.803Z,100320.63
2023-09-28T17:01:15.307Z,100314.91
2023-09-28T17:04:01.078Z,100320.00
2023-09-28T17:06:45.153Z,100331.06
2023-09-28T17:09:29.166Z,100328.31
2023-09-28T17:12:13.648Z,100331.16
2023-09-28T17:14:57.638Z,100332.97
2023-09-28T17:17:41.800Z,100316.34
2023-09-28T17:20:27.404Z,100331.34
2023-09-28T17:23:11.598Z,100331.09
2023-09-28T17:25:57.690Z,100319.88
2023-09-28T17:28:42.715Z,100334.78
2023-09-28T17:31:27.239Z,100318.00
2023-09-28T17:34:11.819Z,100312.63
2023-09-28T17:36:57.483Z,100337.84
2023-09-28T17:39:41.750Z,100306.06
2023-09-28T17:42:26.557Z,100339.81
2023-09-28T17:45:11.064Z,100334.13
2023-09-28T17:47:55.602Z,100337.97
2023-09-28T17:50:39.978Z,100331.34
2023-09-28T17:53:25.956Z,100319.03
2023-09-28T17:56:10.292Z,100342.41
2023-09-28T17:58:55.631Z,100338.28
2023-09-28T18:01:43.201Z,100332.47
2023-09-28T18:04:27.805Z,100346.56
2023-09-28T18:07:14.919Z,100352.41
2023-09-28T18:10:00.739Z,100343.94
2023-09-28T18:12:45.705Z,100347.16
2023-09-28T18:15:30.359Z,100354.28
2023-09-28T18:18:14.994Z,100317.13
2023-09-28T18:20:59.613Z,100320.94
2023-09-28T18:23:47.668Z,100328.25
2023-09-28T18:26:34.756Z,100300.13
2023-09-28T18:29:19.571Z,100351.09
2023-09-28T18:32:04.048Z,100354.16
2023-09-28T18:34:50.873Z,100363.09
2023-09-28T18:37:35.908Z,100357.72
2023-09-28T18:40:23.468Z,100359.72
2023-09-28T18:43:09.974Z,100355.50
2023-09-28T18:45:55.990Z,100356.06
2023-09-28T18:48:40.993Z,100332.31
2023-09-28T18:51:26.378Z,100341.06
2023-09-28T18:54:11.813Z,100340.50
2023-09-28T18:56:56.509Z,100334.00
2023-09-28T18:59:43.425Z,100334.91
2023-09-28T19:02:28.973Z,100329.56
2023-09-28T19:05:15.225Z,100324.94
2023-09-28T19:07:59.985Z,100327.91
2023-09-28T19:10:45.266Z,100323.81
2023-09-28T19:13:32.519Z,100275.00
2023-09-28T19:16:18.451Z,100312.09
2023-09-28T19:19:02.841Z,100308.28
2023-09-28T19:21:50.175Z,100318.03
2023-09-28T19:24:36.233Z,100286.59
2023-09-28T19:27:35.711Z,100303.84
2023-09-28T19:30:23.960Z,100309.38
2023-09-28T19:33:10.289Z,100314.50
2023-09-28T19:35:55.293Z,100293.88
2023-09-28T19:38:40.810Z,100265.91
2023-09-28T19:41:29.833Z,100297.63
2023-09-28T19:44:14.992Z,100303.75
2023-09-28T19:46:59.697Z,100297.91
2023-09-28T19:49:45.616Z,100292.84
2023-09-28T19:52:33.934Z,100252.44
2023-09-28T19:55:18.914Z,100272.56
2023-09-28T19:58:03.482Z,100293.47
2023-09-28T20:00:47.963Z,100287.81
2023-09-28T20:03:32.524Z,100291.94
2023-09-28T20:06:21.862Z,100292.28
2023-09-28T20:09:07.675Z,100302.41
2023-09-28T20:11:52.586Z,100181.84
2023-09-28T20:14:36.813Z,100291.22
2023-09-28T20:17:21.049Z,100295.41
2023-09-28T20:20:06.961Z,100295.41
2023-09-28T20:22:57.195Z,100286.03
2023-09-28T20:25:42.570Z,100291.75
2023-09-28T20:28:27.809Z,100297.13
2023-09-28T20:31:12.035Z,100297.41
2023-09-28T20:33:56.145Z,100291.00
2023-09-28T20:36:40.337Z,100253.56
2023-09-28T20:39:25.646Z,100269.38
2023-09-28T20:42:10.458Z,100273.34
2023-09-28T20:44:54.828Z,100284.25
2023-09-28T20:47:39.321Z,100249.34
2023-09-28T20:50:23.551Z,100208.47
2023-09-28T20:53:07.756Z,100260.09
2023-09-28T20:55:53.060Z,100282.88
2023-09-28T20:58:36.950Z,100267.16
2023-09-28T21:01:20.881Z,100250.25
2023-09-28T21:04:05.208Z,100292.66
2023-09-28T21:06:49.241Z,100274.13
2023-09-28T21:09:33.234Z,100270.47
2023-09-28T21:12:18.523Z,100256.00
2023-09-28T21:15:02.900Z,100251.00
2023-09-28T21:17:49.050Z,100247.81
2023-09-28T21:20:33.399Z,100270.22
2023-09-28T21:23:17.592Z,100284.41
2023-09-28T21:26:01.826Z,100280.47
2023-09-28T21:28:47.475Z,100272.31
2023-09-28T21:31:31.594Z,100235.84
2023-09-28T21:34:15.961Z,100271.19
2023-09-28T21:37:00.099Z,100273.00
2023-09-28T21:39:44.448Z,100274.00
2023-09-28T21:42:28.966Z,100231.06
2023-09-28T21:45:14.970Z,100270.75
2023-09-28T21:47:59.218Z,100250.31
2023-09-28T21:50:43.705Z,100269.44
2023-09-28T21:53:28.049Z,100281.88
2023-09-28T21:56:12.215Z,100275.84
2023-09-28T21:58:56.430Z,100245.13
2023-09-28T22:01:42.569Z,100277.41
2023-09-28T22:04:26.521Z,100282.50
2023-09-28T22:07:10.422Z,100280.28
2023-09-28T22:09:55.010Z,100286.72
2023-09-28T22:12:38.976Z,100282.44
2023-09-28T22:15:23.421Z,100287.81
2023-09-28T22:18:10.769Z,100289.06
2023-09-28T22:20:54.901Z,100303.00
2023-09-28T22:23:38.835Z,100292.16
2023-09-28T22:26:22.929Z,100286.41
2023-09-28T22:29:07.089Z,100281.16
2023-09-28T22:31:51.061Z,100280.28
2023-09-28T22:34:36.671Z,100281.63
2023-09-28T22:37:20.605Z,100286.25
2023-09-28T22:40:24.011Z,100276.31
2023-09-28T22:43:10.626Z,100279.38
2023-09-28T22:45:54.570Z,100282.84
2023-09-28T22:48:38.736Z,100279.97
2023-09-28T22:51:23.992Z,100270.72
2023-09-28T22:54:09.006Z,100281.56
2023-09-28T22:56:53.098Z,100281.34
2023-09-28T22:59:37.852Z,100290.06
2023-09-28T23:02:21.896Z,100294.31
2023-09-28T23:05:06.625Z,100276.66
2023-09-28T23:07:52.120Z,100274.97
2023-09-28T23:10:36.360Z,100279.56
2023-09-28T23:13:20.245Z,100288.34
2023-09-28T23:16:06.702Z,100282.75
2023-09-28T23:18:51.835Z,100277.75
2023-09-28T23:21:36.581Z,100247.31
2023-09-28T23:24:23.379Z,100271.34
2023-09-28T23:27:07.495Z,100275.00
2023-09-28T23:29:52.468Z,100267.94
2023-09-28T23:32:38.143Z,100264.56
2023-09-28T23:35:25.482Z,100268.06
2023-09-28T23:38:11.754Z,100237.88
2023-09-28T23:40:57.841Z,100249.31
2023-09-28T23:43:42.135Z,100277.78
2023-09-28T23:46:26.323Z,100273.06
2023-09-28T23:49:11.292Z,100293.94
2023-09-28T23:51:55.629Z,100294.94
2023-09-28T23:54:40.012Z,100246.84
2023-09-28T23:57:26.197Z,100248.81
